Terminal Aerodrome Forecast
Issued by NWS Cheyenne, WY

Home | Current Version | Previous Version | Text Only | Print | Product List | Glossary On
Versions: 1 2 3 4 5 6 7 8 9 10 11 12 13 14 15 16 17 18 19 20 21 22 23 24 25 26 27 28 29 30 31 32 33 34 35 36 37 38 39 40 41 42 43 44 45 46 47 48 49
000
FTUS45 KCYS 071120
TAFCYS
TAF
KCYS 071120Z 0712/0812 17008KT 2SM -DZ BR BKN007 OVC015
     FM071700 17011G17KT P6SM OVC015
     FM071900 17015G25KT P6SM SCT020 BKN030
     FM080300 17012KT 3SM BR BKN007 OVC015=

USA.gov is the U.S. government's official web portal to all federal, state and local government web resources and services.